Aurora Australis — VNAA — position and weather

sailwx.info

Track history (hours):
 
Tides and Currents Weather Stations Pressure Air Temp Water Temp Dewpoint Dewpoint Depression Visibility Wind Speed Wind Dir Waves Ship Positions

Oceanographic research ship Aurora Australis (Australia)

Detailed information on ship capabilities available from University of Delaware's Ocean Information Center.

Last reported at 2015-Jan-30 12:00 UTC. Time now 2015-Jan-30 20:07 UTC.
Position S 48°00' E 134°30'.

Length 94.9 m; beam 20.3 m; draft 7.9 m.

Type: Ship. MMSI: 503043000.

Wind from 320 at 10 knots

Barometer 1026.8 mb
Air temperature 10.3 ° C
Visibility: greater than 10.8 NM
Dewpoint 8.9 ° C
Water temperature 10.9 ° C

Date/timePositionNaut miles runAvg speedWind from/ knotsBaromVisibWave heightAir tempDewpointWater temp
2015-Jan-30 12:00S 48°00' E 134°30'4013.5 320 / 101026.810.8 10.3 8.910.9
2015-Jan-30 09:00S 47°42' E 135°24'4113.5 320 / 61026.210.8 10.5 7.910.2
2015-Jan-30 06:00S 47°24' E 136°18'7639.2 350 / 21027.810.8 10.8 6.511.1
2015-Jan-30 04:03S 46°53' E 138°01'87 8.8
2015-Jan-29 18:10S 46°14' E 139°54'1013.4
2015-Jan-29 17:27S 46°10' E 140°06'1513.6
2015-Jan-29 16:22S 46°03' E 140°25'1415.6
2015-Jan-29 15:27S 45°57' E 140°43'1413.0
2015-Jan-29 14:23S 45°50' E 141°01'1413.3
2015-Jan-29 13:20S 45°44' E 141°19'1413.4
2015-Jan-29 12:18S 45°38' E 141°37'1013.0
2015-Jan-29 11:33S 45°34' E 141°49'1312.0
2015-Jan-29 10:27S 45°28' E 142°06'1413.2
2015-Jan-29 09:24S 45°21' E 142°24'1213.9
2015-Jan-29 08:33S 45°16' E 142°39'3214.2
2015-Jan-29 06:20S 45°02' E 143°19'926.4
2015-Jan-29 06:00S 44°54' E 143°24'1224.2 130 / 161029.310.8 0.511.8 7.913.5
2015-Jan-29 05:30S 44°54' E 143°41'2911.4
2015-Jan-29 03:00S 44°36' E 144°12'1620.2 150 / 221028.510.8 1.011.5 8.012.6
2015-Jan-29 02:11S 44°35' E 144°35'2112.5
2015-Jan-29 00:31S 44°25' E 145°01'8012.3
2015-Jan-28 18:04S 43°50' E 146°40'2113.1
2015-Jan-28 16:26S 43°40' E 147°06'1312.4
2015-Jan-28 15:25S 43°33' E 147°21'1314.2
2015-Jan-28 14:30S 43°21' E 147°27'1010.8
2015-Jan-28 13:33S 43°11' E 147°28'1312.5
2015-Jan-28 12:31S 42°59' E 147°22'6 5.6
2015-Jan-28 11:29S 42°53' E 147°20'0 0.0
2015-Jan-28 10:23S 42°53' E 147°20'0 0.0
2015-Jan-28 09:29S 42°53' E 147°20'0 0.0
2015-Jan-28 08:32S 42°53' E 147°20'0 0.0
2015-Jan-28 07:20S 42°53' E 147°20'0 0.0
2015-Jan-28 06:26S 42°53' E 147°20'0 0.0
2015-Jan-28 05:17S 42°53' E 147°20'0 0.0
2015-Jan-28 04:32S 42°53' E 147°20'0 0.0
2015-Jan-28 03:24S 42°53' E 147°20'0 0.0
2015-Jan-28 02:29S 42°53' E 147°20'2 2.3
2015-Jan-28 01:30S 42°51' E 147°20'0 0.0
2015-Jan-28 00:22S 42°51' E 147°20'0 0.0
2015-Jan-27 23:27S 42°51' E 147°20'0 0.0
2015-Jan-27 22:22S 42°51' E 147°20'0 0.1
2015-Jan-27 21:31S 42°51' E 147°20'0 0.0
2015-Jan-27 20:22S 42°51' E 147°20'0 0.1
2015-Jan-27 19:31S 42°51' E 147°20'0 0.0
2015-Jan-27 18:31S 42°51' E 147°20'0 0.0
2015-Jan-27 17:28S 42°51' E 147°20'0 0.0
2015-Jan-27 16:23S 42°51' E 147°20'0 0.0
2015-Jan-27 15:28S 42°51' E 147°20'0 0.0
2015-Jan-27 14:23S 42°51' E 147°20'0 0.0
2015-Jan-27 13:29S 42°51' E 147°20'0 0.0
2015-Jan-27 12:22S 42°51' E 147°20'0 0.1
2015-Jan-27 11:31S 42°51' E 147°20'0 0.0
2015-Jan-27 10:28S 42°51' E 147°20'0 0.0
2015-Jan-27 09:22S 42°51' E 147°20'0 0.0
2015-Jan-27 08:31S 42°51' E 147°20'0 0.0
2015-Jan-27 07:25S 42°51' E 147°20'0 0.0
2015-Jan-27 06:31S 42°51' E 147°20'0 0.0
2015-Jan-27 05:31S 42°51' E 147°20'0 0.0
2015-Jan-27 04:22S 42°51' E 147°20'1 1.0
2015-Jan-27 03:32S 42°51' E 147°20'1 1.3
2015-Jan-27 02:25S 42°53' E 147°20'0 0.0
2015-Jan-27 01:31S 42°53' E 147°20'0 0.0
2015-Jan-27 00:19S 42°53' E 147°20'0 0.0
2015-Jan-26 23:19S 42°53' E 147°20'0 0.0
2015-Jan-26 22:25S 42°53' E 147°20'0 0.0
2015-Jan-26 21:25S 42°53' E 147°20'0 0.0
2015-Jan-26 20:31S 42°53' E 147°20'0 0.0
2015-Jan-26 19:31S 42°53' E 147°20'0 0.0
2015-Jan-26 18:25S 42°53' E 147°20'0 0.0
2015-Jan-26 17:31S 42°53' E 147°20'0 0.0
2015-Jan-26 16:31S 42°53' E 147°20'0 0.0
2015-Jan-26 15:26S 42°53' E 147°20'0 0.0
2015-Jan-26 14:20S 42°53' E 147°20'0 0.0
2015-Jan-26 13:25S 42°53' E 147°20'0 0.0
2015-Jan-26 12:31S 42°53' E 147°20'0 0.0
2015-Jan-26 11:31S 42°53' E 147°20'0 0.0
2015-Jan-26 10:28S 42°53' E 147°20'0 0.0
2015-Jan-26 09:25S 42°53' E 147°20'0 0.0
2015-Jan-26 08:25S 42°53' E 147°20'0 0.0
2015-Jan-26 07:25S 42°53' E 147°20'0 0.0
2015-Jan-26 06:31S 42°53' E 147°20'0 0.0
2015-Jan-26 05:25S 42°53' E 147°20'0 0.0
2015-Jan-26 04:31S 42°53' E 147°20'0 0.0
2015-Jan-26 03:31S 42°53' E 147°20'0 0.0
2015-Jan-26 02:19S 42°53' E 147°20'0 0.0
2015-Jan-26 01:25S 42°53' E 147°20'0 0.0
2015-Jan-26 00:19S 42°53' E 147°20'0 0.0
2015-Jan-25 23:31S 42°53' E 147°20'0 0.0
2015-Jan-25 22:19S 42°53' E 147°20'0 0.0
2015-Jan-25 21:31S 42°53' E 147°20'0 0.0
2015-Jan-25 20:31S 42°53' E 147°20'0 0.0
2015-Jan-25 19:31S 42°53' E 147°20'0 0.0
2015-Jan-25 18:19S 42°53' E 147°20'0 0.0
2015-Jan-25 17:31S 42°53' E 147°20'0 0.0
2015-Jan-25 16:31S 42°53' E 147°20'0 0.0
2015-Jan-25 15:32S 42°53' E 147°20'0 0.0
2015-Jan-25 14:19S 42°53' E 147°20'0 0.0
2015-Jan-25 13:32S 42°53' E 147°20'0 0.0
2015-Jan-25 12:25S 42°53' E 147°20'0 0.0
2015-Jan-25 11:32S 42°53' E 147°20'0 0.0
2015-Jan-25 10:31S 42°53' E 147°20'0 0.0
2015-Jan-25 09:19S 42°53' E 147°20'0 0.0
2015-Jan-25 08:25S 42°53' E 147°20'0 0.0
2015-Jan-25 07:31S 42°53' E 147°20'0 0.0
2015-Jan-25 06:19S 42°53' E 147°20'0 0.0
2015-Jan-25 05:31S 42°53' E 147°20'2019.0
2015-Jan-25 04:29S 43°12' E 147°28'8 5.9
2015-Jan-25 03:12S 43°05' E 147°24'913.3
2015-Jan-25 02:31S 43°14' E 147°28'4 4.3
2015-Jan-25 01:30S 43°18' E 147°28'8 7.7
2015-Jan-25 00:29S 43°26' E 147°25'8 7.7
2015-Jan-24 23:28S 43°33' E 147°23'9 8.3
2015-Jan-24 22:25S 43°41' E 147°20'9 8.6
2015-Jan-24 21:23S 43°50' E 147°17'2813.6
2015-Jan-24 19:19S 44°17' E 147°07'6 5.7
2015-Jan-24 18:12S 44°24' E 147°05'1113.2
2015-Jan-24 17:22S 44°34' E 147°01'1915.2
2015-Jan-24 16:07S 44°53' E 146°57'1110.2
2015-Jan-24 15:04S 45°03' E 146°54'2 2.8
2015-Jan-24 14:20S 45°05' E 146°53'1010.9
2015-Jan-24 13:27S 45°15' E 146°51'10 8.9
2015-Jan-24 12:17S 45°25' E 146°48'10 9.5
2015-Jan-24 11:13S 45°35' E 146°46'1010.2
2015-Jan-24 10:15S 45°45' E 146°45'1313.7
2015-Jan-24 09:19S 45°58' E 146°42'  
Track history (hours):
 
Tides and Currents Weather Stations Pressure Air Temp Water Temp Dewpoint Dewpoint Depression Visibility Wind Speed Wind Dir Waves Ship Positions

Oceanographic research ship Aurora Australis (Australia)

Detailed information on ship capabilities available from University of Delaware's Ocean Information Center.

Last reported at 2015-Jan-30 12:00 UTC. Time now 2015-Jan-30 20:07 UTC.
Position S 48°00' E 134°30'.

Length 94.9 m; beam 20.3 m; draft 7.9 m.

Type: Ship. MMSI: 503043000.

Wind from 320 at 10 knots

Barometer 1026.8 mb
Air temperature 10.3 ° C
Visibility: greater than 10.8 NM
Dewpoint 8.9 ° C
Water temperature 10.9 ° C

Date/timePositionNaut miles runAvg speedWind from/ knotsBaromVisibWave heightAir tempDewpointWater temp
2015-Jan-30 12:00S 48°00' E 134°30'4013.5 320 / 101026.810.8 10.3 8.910.9
2015-Jan-30 09:00S 47°42' E 135°24'4113.5 320 / 61026.210.8 10.5 7.910.2
2015-Jan-30 06:00S 47°24' E 136°18'7639.2 350 / 21027.810.8 10.8 6.511.1
2015-Jan-30 04:03S 46°53' E 138°01'87 8.8
2015-Jan-29 18:10S 46°14' E 139°54'1013.4
2015-Jan-29 17:27S 46°10' E 140°06'1513.6
2015-Jan-29 16:22S 46°03' E 140°25'1415.6
2015-Jan-29 15:27S 45°57' E 140°43'1413.0
2015-Jan-29 14:23S 45°50' E 141°01'1413.3
2015-Jan-29 13:20S 45°44' E 141°19'1413.4
2015-Jan-29 12:18S 45°38' E 141°37'1013.0
2015-Jan-29 11:33S 45°34' E 141°49'1312.0
2015-Jan-29 10:27S 45°28' E 142°06'1413.2
2015-Jan-29 09:24S 45°21' E 142°24'1213.9
2015-Jan-29 08:33S 45°16' E 142°39'3214.2
2015-Jan-29 06:20S 45°02' E 143°19'926.4
2015-Jan-29 06:00S 44°54' E 143°24'1224.2 130 / 161029.310.8 0.511.8 7.913.5
2015-Jan-29 05:30S 44°54' E 143°41'2911.4
2015-Jan-29 03:00S 44°36' E 144°12'1620.2 150 / 221028.510.8 1.011.5 8.012.6
2015-Jan-29 02:11S 44°35' E 144°35'2112.5
2015-Jan-29 00:31S 44°25' E 145°01'8012.3
2015-Jan-28 18:04S 43°50' E 146°40'2113.1
2015-Jan-28 16:26S 43°40' E 147°06'1312.4
2015-Jan-28 15:25S 43°33' E 147°21'1314.2
2015-Jan-28 14:30S 43°21' E 147°27'1010.8
2015-Jan-28 13:33S 43°11' E 147°28'1312.5
2015-Jan-28 12:31S 42°59' E 147°22'6 5.6
2015-Jan-28 11:29S 42°53' E 147°20'0 0.0
2015-Jan-28 10:23S 42°53' E 147°20'0 0.0
2015-Jan-28 09:29S 42°53' E 147°20'0 0.0
2015-Jan-28 08:32S 42°53' E 147°20'0 0.0
2015-Jan-28 07:20S 42°53' E 147°20'0 0.0
2015-Jan-28 06:26S 42°53' E 147°20'0 0.0
2015-Jan-28 05:17S 42°53' E 147°20'0 0.0
2015-Jan-28 04:32S 42°53' E 147°20'0 0.0
2015-Jan-28 03:24S 42°53' E 147°20'0 0.0
2015-Jan-28 02:29S 42°53' E 147°20'2 2.3
2015-Jan-28 01:30S 42°51' E 147°20'0 0.0
2015-Jan-28 00:22S 42°51' E 147°20'0 0.0
2015-Jan-27 23:27S 42°51' E 147°20'0 0.0
2015-Jan-27 22:22S 42°51' E 147°20'0 0.1
2015-Jan-27 21:31S 42°51' E 147°20'0 0.0
2015-Jan-27 20:22S 42°51' E 147°20'0 0.1
2015-Jan-27 19:31S 42°51' E 147°20'0 0.0
2015-Jan-27 18:31S 42°51' E 147°20'0 0.0
2015-Jan-27 17:28S 42°51' E 147°20'0 0.0
2015-Jan-27 16:23S 42°51' E 147°20'0 0.0
2015-Jan-27 15:28S 42°51' E 147°20'0 0.0
2015-Jan-27 14:23S 42°51' E 147°20'0 0.0
2015-Jan-27 13:29S 42°51' E 147°20'0 0.0
2015-Jan-27 12:22S 42°51' E 147°20'0 0.1
2015-Jan-27 11:31S 42°51' E 147°20'0 0.0
2015-Jan-27 10:28S 42°51' E 147°20'0 0.0
2015-Jan-27 09:22S 42°51' E 147°20'0 0.0
2015-Jan-27 08:31S 42°51' E 147°20'0 0.0
2015-Jan-27 07:25S 42°51' E 147°20'0 0.0
2015-Jan-27 06:31S 42°51' E 147°20'0 0.0
2015-Jan-27 05:31S 42°51' E 147°20'0 0.0
2015-Jan-27 04:22S 42°51' E 147°20'1 1.0
2015-Jan-27 03:32S 42°51' E 147°20'1 1.3
2015-Jan-27 02:25S 42°53' E 147°20'0 0.0
2015-Jan-27 01:31S 42°53' E 147°20'0 0.0
2015-Jan-27 00:19S 42°53' E 147°20'0 0.0
2015-Jan-26 23:19S 42°53' E 147°20'0 0.0
2015-Jan-26 22:25S 42°53' E 147°20'0 0.0
2015-Jan-26 21:25S 42°53' E 147°20'0 0.0
2015-Jan-26 20:31S 42°53' E 147°20'0 0.0
2015-Jan-26 19:31S 42°53' E 147°20'0 0.0
2015-Jan-26 18:25S 42°53' E 147°20'0 0.0
2015-Jan-26 17:31S 42°53' E 147°20'0 0.0
2015-Jan-26 16:31S 42°53' E 147°20'0 0.0
2015-Jan-26 15:26S 42°53' E 147°20'0 0.0
2015-Jan-26 14:20S 42°53' E 147°20'0 0.0
2015-Jan-26 13:25S 42°53' E 147°20'0 0.0
2015-Jan-26 12:31S 42°53' E 147°20'0 0.0
2015-Jan-26 11:31S 42°53' E 147°20'0 0.0
2015-Jan-26 10:28S 42°53' E 147°20'0 0.0
2015-Jan-26 09:25S 42°53' E 147°20'0 0.0
2015-Jan-26 08:25S 42°53' E 147°20'0 0.0
2015-Jan-26 07:25S 42°53' E 147°20'0 0.0
2015-Jan-26 06:31S 42°53' E 147°20'0 0.0
2015-Jan-26 05:25S 42°53' E 147°20'0 0.0
2015-Jan-26 04:31S 42°53' E 147°20'0 0.0
2015-Jan-26 03:31S 42°53' E 147°20'0 0.0
2015-Jan-26 02:19S 42°53' E 147°20'0 0.0
2015-Jan-26 01:25S 42°53' E 147°20'0 0.0
2015-Jan-26 00:19S 42°53' E 147°20'0 0.0
2015-Jan-25 23:31S 42°53' E 147°20'0 0.0
2015-Jan-25 22:19S 42°53' E 147°20'0 0.0
2015-Jan-25 21:31S 42°53' E 147°20'0 0.0
2015-Jan-25 20:31S 42°53' E 147°20'0 0.0
2015-Jan-25 19:31S 42°53' E 147°20'0 0.0
2015-Jan-25 18:19S 42°53' E 147°20'0 0.0
2015-Jan-25 17:31S 42°53' E 147°20'0 0.0
2015-Jan-25 16:31S 42°53' E 147°20'0 0.0
2015-Jan-25 15:32S 42°53' E 147°20'0 0.0
2015-Jan-25 14:19S 42°53' E 147°20'0 0.0
2015-Jan-25 13:32S 42°53' E 147°20'0 0.0
2015-Jan-25 12:25S 42°53' E 147°20'0 0.0
2015-Jan-25 11:32S 42°53' E 147°20'0 0.0
2015-Jan-25 10:31S 42°53' E 147°20'0 0.0
2015-Jan-25 09:19S 42°53' E 147°20'0 0.0
2015-Jan-25 08:25S 42°53' E 147°20'0 0.0
2015-Jan-25 07:31S 42°53' E 147°20'0 0.0
2015-Jan-25 06:19S 42°53' E 147°20'0 0.0
2015-Jan-25 05:31S 42°53' E 147°20'2019.0
2015-Jan-25 04:29S 43°12' E 147°28'8 5.9
2015-Jan-25 03:12S 43°05' E 147°24'913.3
2015-Jan-25 02:31S 43°14' E 147°28'4 4.3
2015-Jan-25 01:30S 43°18' E 147°28'8 7.7
2015-Jan-25 00:29S 43°26' E 147°25'8 7.7
2015-Jan-24 23:28S 43°33' E 147°23'9 8.3
2015-Jan-24 22:25S 43°41' E 147°20'9 8.6
2015-Jan-24 21:23S 43°50' E 147°17'2813.6
2015-Jan-24 19:19S 44°17' E 147°07'6 5.7
2015-Jan-24 18:12S 44°24' E 147°05'1113.2
2015-Jan-24 17:22S 44°34' E 147°01'1915.2
2015-Jan-24 16:07S 44°53' E 146°57'1110.2
2015-Jan-24 15:04S 45°03' E 146°54'2 2.8
2015-Jan-24 14:20S 45°05' E 146°53'1010.9
2015-Jan-24 13:27S 45°15' E 146°51'10 8.9
2015-Jan-24 12:17S 45°25' E 146°48'10 9.5
2015-Jan-24 11:13S 45°35' E 146°46'1010.2
2015-Jan-24 10:15S 45°45' E 146°45'1313.7
2015-Jan-24 09:19S 45°58' E 146°42'  

Dump ship's entire track history